Time;durP1;ratioP1;P1;durP2;ratioP2;P2;SDS_P1;SDS_P2;PMS_P1;PMS_P2;Temp;Humidity;BMP_temperature;BMP_pressure;BME280_temperature;BME280_humidity;BME280_pressure;Samples;Min_cycle;Max_cycle;Signal;HPM_P1;HPM_P2
2021/07/21 00:00:32;;;;;;;32.50;30.40;;;18.80;73.70;;;;;;5043250;28;20479;-69
2021/07/21 00:03:00;;;;;;;33.33;31.13;;;18.80;74.00;;;;;;5037340;28;20459;-69
2021/07/21 00:05:27;;;;;;;32.90;30.60;;;18.80;73.70;;;;;;5046158;28;20522;-68
2021/07/21 00:07:57;;;;;;;32.77;30.47;;;18.80;73.80;;;;;;5047143;28;20459;-68
2021/07/21 00:10:25;;;;;;;34.63;32.00;;;18.70;73.70;;;;;;5045310;28;20448;-68
2021/07/21 00:15:41;;;;;;;33.87;31.57;;;18.60;74.20;;;;;;5039197;28;20482;-68
2021/07/21 00:18:18;;;;;;;33.87;31.33;;;18.60;74.30;;;;;;5037543;28;20537;-68
2021/07/21 00:20:45;;;;;;;33.17;30.83;;;18.70;74.40;;;;;;5045365;28;20486;-68
2021/07/21 00:23:13;;;;;;;34.43;31.80;;;18.70;74.20;;;;;;5045986;28;20459;-68
2021/07/21 00:25:40;;;;;;;33.67;31.27;;;18.60;74.50;;;;;;5043885;28;20499;-68
2021/07/21 00:28:07;;;;;;;33.60;31.10;;;18.60;74.70;;;;;;5039056;28;20810;-68
2021/07/21 00:30:34;;;;;;;32.37;30.20;;;18.60;74.70;;;;;;5040972;28;20868;-68
2021/07/21 00:33:01;;;;;;;31.87;29.67;;;18.50;74.60;;;;;;5044852;28;20459;-68
2021/07/21 00:35:28;;;;;;;32.13;29.83;;;18.50;74.40;;;;;;5047956;28;20512;-68
2021/07/21 00:37:55;;;;;;;33.20;30.97;;;18.50;74.50;;;;;;5057075;28;20485;-68
2021/07/21 00:40:23;;;;;;;32.87;30.47;;;18.50;74.50;;;;;;5044920;28;20574;-68
2021/07/21 00:42:50;;;;;;;33.27;30.97;;;18.40;74.60;;;;;;5041153;28;20459;-68
2021/07/21 00:45:17;;;;;;;32.20;30.00;;;18.40;74.70;;;;;;5046133;28;20841;-68
2021/07/21 00:47:44;;;;;;;32.80;30.20;;;18.40;74.90;;;;;;5043676;28;20447;-68
2021/07/21 00:50:12;;;;;;;32.53;29.93;;;18.30;75.30;;;;;;5042424;28;20493;-68
2021/07/21 00:52:41;;;;;;;33.57;31.27;;;18.30;75.30;;;;;;5034422;28;20482;-68
2021/07/21 00:55:10;;;;;;;33.87;31.27;;;18.30;75.20;;;;;;5042906;28;20487;-68
2021/07/21 00:57:39;;;;;;;33.03;30.73;;;18.20;75.40;;;;;;5037999;28;20462;-68
2021/07/21 01:00:10;;;;;;;32.83;30.63;;;18.20;75.70;;;;;;5042373;28;20484;-68
2021/07/21 01:02:37;;;;;;;33.33;30.93;;;18.20;75.80;;;;;;5046560;28;20833;-68
2021/07/21 01:05:08;;;;;;;33.43;31.03;;;18.20;75.80;;;;;;5043981;28;20459;-68
2021/07/21 01:07:35;;;;;;;32.60;30.50;;;18.10;75.80;;;;;;5049343;28;20469;-68
2021/07/21 01:10:02;;;;;;;33.43;30.90;;;18.10;76.20;;;;;;5046388;28;20455;-68
2021/07/21 01:12:34;;;;;;;32.50;30.30;;;18.00;76.60;;;;;;5040164;28;20461;-68
2021/07/21 01:15:10;;;;;;;34.43;31.73;;;18.00;76.80;;;;;;5044648;28;20462;-68
2021/07/21 01:17:41;;;;;;;32.83;30.60;;;17.90;76.80;;;;;;5044360;28;20994;-68
2021/07/21 01:20:43;;;;;;;33.90;31.30;;;17.90;76.80;;;;;;5044826;28;20476;-68
2021/07/21 01:23:22;;;;;;;33.77;31.27;;;17.90;76.80;;;;;;5032265;28;20952;-69
2021/07/21 01:25:57;;;;;;;33.40;31.10;;;17.80;76.80;;;;;;5041146;28;20634;-69
2021/07/21 01:28:29;;;;;;;31.87;29.63;;;17.80;77.00;;;;;;5044683;28;20450;-68
2021/07/21 01:30:59;;;;;;;32.50;30.30;;;17.80;77.00;;;;;;5045441;28;20992;-69
2021/07/21 01:33:28;;;;;;;32.23;30.13;;;17.60;77.40;;;;;;5044575;28;20987;-69
2021/07/21 01:35:58;;;;;;;32.93;30.70;;;17.50;77.60;;;;;;5041498;28;20470;-69
2021/07/21 01:38:30;;;;;;;32.53;30.43;;;17.60;77.30;;;;;;5055786;28;20457;-69
2021/07/21 01:40:59;;;;;;;31.43;29.33;;;17.60;77.40;;;;;;5041894;28;20502;-69
2021/07/21 01:43:30;;;;;;;32.87;30.20;;;17.60;77.70;;;;;;5043195;28;20764;-69
2021/07/21 01:45:59;;;;;;;33.30;31.00;;;17.50;77.90;;;;;;5042422;28;20481;-69
2021/07/21 01:48:32;;;;;;;32.77;30.40;;;17.40;78.00;;;;;;5047364;28;20469;-69
2021/07/21 01:51:00;;;;;;;33.07;30.90;;;17.40;77.80;;;;;;5041137;28;20455;-68
2021/07/21 01:53:30;;;;;;;32.40;30.20;;;17.40;77.80;;;;;;5046273;28;20809;-68
2021/07/21 01:55:57;;;;;;;32.87;30.53;;;17.40;77.90;;;;;;5043336;28;20604;-68
2021/07/21 01:58:26;;;;;;;33.03;30.83;;;17.30;78.30;;;;;;5042536;28;20473;-69
2021/07/21 02:00:55;;;;;;;33.00;30.60;;;17.30;78.40;;;;;;5040782;28;20467;-69
2021/07/21 02:03:23;;;;;;;32.70;30.30;;;17.30;78.40;;;;;;5041011;28;20455;-68
2021/07/21 02:05:54;;;;;;;33.20;30.80;;;17.30;78.50;;;;;;5053130;28;20835;-68
2021/07/21 02:08:23;;;;;;;34.20;31.77;;;17.20;78.70;;;;;;5034440;28;20967;-68
2021/07/21 02:10:50;;;;;;;33.40;31.20;;;17.20;78.90;;;;;;5037977;28;20447;-68
2021/07/21 02:13:17;;;;;;;32.27;29.97;;;17.20;78.70;;;;;;5043640;28;20742;-69
2021/07/21 02:15:46;;;;;;;33.70;31.40;;;17.20;78.90;;;;;;5037250;28;20470;-68
2021/07/21 02:18:18;;;;;;;32.47;30.33;;;17.20;78.70;;;;;;5044914;28;20476;-67
2021/07/21 02:20:45;;;;;;;32.50;30.30;;;17.20;78.60;;;;;;5044757;28;20545;-68
2021/07/21 02:23:13;;;;;;;32.33;30.07;;;17.20;78.80;;;;;;5045946;28;20895;-68
2021/07/21 02:25:41;;;;;;;34.07;31.67;;;17.10;79.10;;;;;;5040106;28;20561;-68
2021/07/21 02:28:08;;;;;;;33.27;31.10;;;17.00;79.30;;;;;;5042010;28;20451;-70
2021/07/21 02:30:36;;;;;;;32.60;30.30;;;17.10;79.30;;;;;;5043478;28;20829;-68
2021/07/21 02:33:09;;;;;;;32.90;30.80;;;17.10;79.20;;;;;;5037252;28;20463;-68
2021/07/21 02:35:37;;;;;;;33.83;31.53;;;17.00;79.40;;;;;;5043919;28;20483;-69
2021/07/21 02:38:04;;;;;;;32.80;30.60;;;17.00;79.40;;;;;;5044667;28;20967;-69
2021/07/21 02:40:32;;;;;;;34.10;31.50;;;16.90;80.00;;;;;;5048461;28;20477;-68
2021/07/21 02:42:59;;;;;;;33.10;30.90;;;16.80;80.10;;;;;;5042141;28;20459;-68
2021/07/21 02:45:26;;;;;;;32.23;29.93;;;16.80;80.20;;;;;;5044929;28;20479;-68
2021/07/21 02:47:53;;;;;;;31.80;29.70;;;16.80;80.30;;;;;;5049009;28;20457;-69
2021/07/21 02:50:21;;;;;;;33.17;30.30;;;16.80;80.40;;;;;;5044886;28;20458;-68
2021/07/21 02:52:56;;;;;;;33.20;30.97;;;16.70;80.60;;;;;;5043600;28;20450;-69
2021/07/21 02:55:26;;;;;;;33.13;30.57;;;16.80;80.40;;;;;;5043670;28;20870;-68
2021/07/21 02:57:58;;;;;;;33.50;30.90;;;16.80;80.50;;;;;;5042823;28;20929;-68
2021/07/21 03:00:28;;;;;;;33.13;30.73;;;16.70;80.50;;;;;;5049320;28;20535;-68
2021/07/21 03:02:56;;;;;;;33.40;31.20;;;16.60;80.90;;;;;;5047033;28;20491;-68
2021/07/21 03:05:27;;;;;;;31.60;29.57;;;16.60;81.00;;;;;;5048488;28;20479;-68
2021/07/21 03:07:57;;;;;;;32.23;30.13;;;16.60;80.90;;;;;;5048317;28;20474;-68
2021/07/21 03:10:24;;;;;;;33.10;30.90;;;16.60;80.90;;;;;;5041430;28;20549;-68
2021/07/21 03:12:57;;;;;;;33.20;30.90;;;16.60;80.90;;;;;;5045016;28;20561;-68
2021/07/21 03:15:28;;;;;;;34.90;31.97;;;16.60;81.00;;;;;;5040914;28;21000;-68
2021/07/21 03:17:56;;;;;;;35.10;32.73;;;16.50;81.10;;;;;;5046926;28;20471;-68
2021/07/21 03:20:23;;;;;;;33.03;30.60;;;16.60;80.90;;;;;;5044342;28;20474;-68
2021/07/21 03:22:53;;;;;;;33.07;30.87;;;16.50;81.10;;;;;;5039491;28;20474;-68
2021/07/21 03:25:22;;;;;;;32.93;30.73;;;16.50;81.50;;;;;;5045348;28;20493;-68
2021/07/21 03:27:51;;;;;;;33.60;30.90;;;16.40;81.60;;;;;;5043029;28;20455;-68
2021/07/21 03:30:19;;;;;;;36.03;33.30;;;16.40;81.90;;;;;;5049076;28;20769;-68
2021/07/21 03:32:47;;;;;;;33.70;31.50;;;16.30;82.10;;;;;;5043714;28;20821;-68
2021/07/21 03:35:16;;;;;;;35.03;32.53;;;16.20;82.20;;;;;;5042083;28;21099;-68
2021/07/21 03:37:46;;;;;;;33.20;31.00;;;16.20;82.30;;;;;;5046449;28;20552;-67
2021/07/21 03:40:14;;;;;;;33.43;31.13;;;16.20;82.40;;;;;;5049045;28;20481;-68
2021/07/21 03:42:42;;;;;;;32.90;30.67;;;16.20;82.50;;;;;;5044230;28;20492;-68
2021/07/21 03:45:12;;;;;;;31.70;29.60;;;16.20;82.40;;;;;;5044552;28;20482;-68
2021/07/21 03:47:41;;;;;;;34.40;32.10;;;16.30;82.30;;;;;;5045403;28;20467;-68
2021/07/21 03:50:09;;;;;;;33.60;31.30;;;16.20;82.40;;;;;;5037850;28;20456;-68
2021/07/21 03:52:37;;;;;;;35.90;33.20;;;16.20;82.70;;;;;;5040147;28;20452;-68
2021/07/21 03:55:05;;;;;;;33.00;30.70;;;16.20;82.60;;;;;;5043043;28;20493;-68
2021/07/21 03:57:33;;;;;;;33.97;31.47;;;16.30;82.50;;;;;;5045284;28;21469;-69
2021/07/21 04:00:01;;;;;;;35.83;33.43;;;16.20;82.60;;;;;;5049543;28;20462;-69
2021/07/21 04:02:31;;;;;;;37.87;35.40;;;16.20;82.70;;;;;;5044244;28;20581;-68
2021/07/21 04:04:58;;;;;;;34.83;32.40;;;16.30;82.30;;;;;;5045040;28;20538;-68
2021/07/21 04:07:26;;;;;;;33.63;31.33;;;16.30;82.10;;;;;;5046698;28;20459;-69
2021/07/21 04:09:53;;;;;;;34.90;32.30;;;16.20;82.20;;;;;;5036832;28;20458;-68
2021/07/21 04:12:21;;;;;;;33.00;30.70;;;16.30;82.30;;;;;;5042751;28;20483;-68
2021/07/21 04:14:51;;;;;;;34.37;31.60;;;16.30;82.40;;;;;;5043979;28;20462;-68
2021/07/21 04:17:21;;;;;;;34.70;32.23;;;16.30;82.00;;;;;;5046400;28;20857;-68
2021/07/21 04:19:48;;;;;;;33.50;31.07;;;16.40;82.00;;;;;;5040104;28;20465;-68
2021/07/21 04:22:16;;;;;;;35.03;32.57;;;16.40;81.80;;;;;;5045606;28;20478;-68
2021/07/21 04:24:46;;;;;;;35.73;33.20;;;16.50;81.70;;;;;;5044841;28;20594;-68
2021/07/21 04:27:14;;;;;;;35.90;33.50;;;16.60;81.30;;;;;;5046520;28;20490;-68
2021/07/21 04:29:42;;;;;;;37.63;35.03;;;16.60;81.10;;;;;;5041322;28;20522;-68
2021/07/21 04:32:10;;;;;;;34.23;31.90;;;16.70;80.80;;;;;;5039634;28;20464;-68
2021/07/21 04:34:40;;;;;;;33.20;31.00;;;16.70;80.80;;;;;;5045837;28;20884;-68
2021/07/21 04:37:07;;;;;;;34.97;32.50;;;16.70;80.80;;;;;;5033484;28;20510;-68
2021/07/21 04:39:35;;;;;;;36.47;34.17;;;16.80;80.80;;;;;;5038561;28;20549;-68
2021/07/21 04:42:03;;;;;;;35.50;32.87;;;16.90;80.40;;;;;;5047917;28;20488;-68
2021/07/21 04:44:30;;;;;;;38.03;35.73;;;17.00;80.30;;;;;;5046239;28;20537;-68
2021/07/21 04:47:00;;;;;;;37.50;34.37;;;17.00;80.10;;;;;;5039572;28;20483;-69
2021/07/21 04:49:28;;;;;;;34.10;31.50;;;17.10;79.90;;;;;;5046351;28;20457;-69
2021/07/21 04:52:00;;;;;;;34.33;31.93;;;17.10;79.60;;;;;;5049507;28;20485;-69
2021/07/21 04:54:28;;;;;;;37.30;34.87;;;17.20;79.70;;;;;;5041964;28;20459;-69
2021/07/21 04:56:55;;;;;;;33.70;31.40;;;17.10;79.50;;;;;;5046957;28;20481;-69
2021/07/21 04:59:22;;;;;;;34.20;31.73;;;17.20;79.70;;;;;;5046053;28;20455;-70
2021/07/21 05:01:49;;;;;;;34.40;32.03;;;17.40;79.10;;;;;;5045553;28;20487;-70
2021/07/21 05:04:17;;;;;;;33.90;31.40;;;17.50;78.80;;;;;;5047410;28;21260;-72
2021/07/21 05:06:44;;;;;;;35.10;32.80;;;17.70;78.30;;;;;;5047987;28;20485;-73
2021/07/21 05:09:12;;;;;;;33.80;31.60;;;17.60;78.20;;;;;;5047080;28;20824;-73
2021/07/21 05:11:40;;;;;;;36.70;34.00;;;17.50;78.60;;;;;;5050505;28;20556;-73
2021/07/21 05:14:07;;;;;;;32.90;30.60;;;17.50;78.40;;;;;;5047014;28;21040;-74
2021/07/21 05:16:36;;;;;;;31.90;29.60;;;17.60;78.30;;;;;;5044837;28;20574;-72
2021/07/21 05:19:03;;;;;;;38.83;35.90;;;17.80;77.80;;;;;;5047650;28;20879;-71
2021/07/21 05:21:32;;;;;;;35.70;33.20;;;17.90;77.80;;;;;;5046888;28;20840;-71
2021/07/21 05:23:59;;;;;;;35.17;32.60;;;18.00;77.40;;;;;;5044313;28;20461;-71
2021/07/21 05:26:28;;;;;;;35.27;32.83;;;18.10;77.00;;;;;;5047024;28;21013;-71
2021/07/21 05:28:57;;;;;;;38.03;35.43;;;18.20;76.40;;;;;;5047677;28;20486;-71
2021/07/21 05:31:24;;;;;;;34.57;32.07;;;18.30;76.30;;;;;;5039817;28;20501;-72
2021/07/21 05:33:52;;;;;;;39.67;36.90;;;18.30;76.10;;;;;;5043223;28;20455;-71
2021/07/21 05:36:20;;;;;;;36.33;33.83;;;18.40;75.30;;;;;;5044544;28;20480;-72
2021/07/21 05:38:47;;;;;;;36.80;34.30;;;18.40;74.70;;;;;;5045942;28;20529;-71
2021/07/21 05:41:16;;;;;;;36.83;34.33;;;18.50;74.00;;;;;;5043890;28;20606;-73
2021/07/21 05:43:44;;;;;;;36.53;33.73;;;18.50;74.20;;;;;;5046266;28;20454;-77
2021/07/21 05:46:13;;;;;;;40.93;37.93;;;18.40;73.90;;;;;;5057025;28;20582;-75
2021/07/21 05:48:40;;;;;;;38.67;35.73;;;18.60;73.80;;;;;;5043776;28;20464;-76
2021/07/21 05:51:07;;;;;;;36.80;34.30;;;18.70;73.50;;;;;;5052354;28;20451;-74
2021/07/21 05:53:34;;;;;;;38.50;35.67;;;18.90;73.30;;;;;;5045538;28;20465;-75
2021/07/21 05:56:00;;;;;;;37.53;35.03;;;19.00;72.20;;;;;;5044900;28;20558;-76
2021/07/21 05:58:27;;;;;;;38.40;35.77;;;18.80;72.40;;;;;;5045325;28;20488;-75
2021/07/21 06:00:56;;;;;;;38.13;35.53;;;18.80;72.30;;;;;;5033280;28;20464;-74
2021/07/21 06:03:24;;;;;;;38.33;35.23;;;18.80;72.70;;;;;;5031889;28;20586;-73
2021/07/21 06:05:51;;;;;;;37.60;35.10;;;18.80;73.00;;;;;;5034519;28;20540;-73
2021/07/21 06:08:18;;;;;;;37.37;34.77;;;19.00;72.40;;;;;;5046716;28;20454;-72
2021/07/21 06:10:45;;;;;;;39.10;36.10;;;19.10;72.50;;;;;;5042957;28;20521;-74
2021/07/21 06:13:13;;;;;;;39.37;36.53;;;19.20;72.40;;;;;;5047291;28;20481;-73
2021/07/21 06:15:40;;;;;;;37.23;34.40;;;19.30;72.10;;;;;;5047566;28;20475;-77
2021/07/21 06:18:09;;;;;;;38.00;35.20;;;19.50;71.80;;;;;;5034766;28;20465;-74
2021/07/21 06:20:37;;;;;;;37.40;34.70;;;19.60;71.40;;;;;;5048566;28;21018;-75
2021/07/21 06:23:05;;;;;;;39.30;36.00;;;19.50;71.10;;;;;;5049845;28;20487;-71
2021/07/21 06:25:32;;;;;;;40.63;37.70;;;19.50;71.00;;;;;;5042606;28;20497;-73
2021/07/21 06:27:59;;;;;;;38.90;36.10;;;19.50;71.20;;;;;;5040801;28;21070;-74
2021/07/21 06:30:26;;;;;;;36.80;33.93;;;19.60;71.40;;;;;;5052241;28;20943;-73
2021/07/21 06:32:53;;;;;;;41.67;38.63;;;19.70;71.10;;;;;;5045331;28;20451;-74
2021/07/21 06:35:21;;;;;;;37.90;35.30;;;19.90;70.80;;;;;;5044319;28;20511;-74
2021/07/21 06:37:48;;;;;;;62.97;37.50;;;19.80;70.30;;;;;;5036619;28;20451;-73
2021/07/21 06:40:17;;;;;;;52.87;38.60;;;19.90;70.40;;;;;;5048008;28;20545;-73
2021/07/21 06:42:44;;;;;;;37.77;35.17;;;20.10;70.30;;;;;;5051347;28;20476;-73
2021/07/21 06:45:12;;;;;;;37.73;35.23;;;20.20;70.50;;;;;;5043203;28;20479;-74
2021/07/21 06:47:39;;;;;;;39.80;37.10;;;20.10;69.10;;;;;;5038922;28;20473;-72
2021/07/21 06:50:07;;;;;;;41.47;38.53;;;20.00;69.70;;;;;;5046412;28;20538;-72
2021/07/21 06:52:35;;;;;;;37.43;34.93;;;19.90;70.10;;;;;;5050597;28;20461;-72
2021/07/21 06:55:02;;;;;;;38.40;35.70;;;20.00;70.30;;;;;;5041364;28;20509;-72
2021/07/21 06:57:29;;;;;;;37.13;34.50;;;20.10;69.50;;;;;;5042144;28;20458;-72
2021/07/21 06:59:56;;;;;;;41.30;38.00;;;20.10;69.60;;;;;;5050966;28;20451;-73
2021/07/21 07:02:23;;;;;;;43.23;39.83;;;20.10;69.30;;;;;;5046246;28;20597;-72
2021/07/21 07:04:50;;;;;;;40.97;38.07;;;20.20;70.00;;;;;;5050926;28;20541;-74
2021/07/21 07:07:17;;;;;;;38.50;35.80;;;20.30;70.10;;;;;;5050174;28;20459;-73
2021/07/21 07:09:46;;;;;;;38.17;35.37;;;20.40;69.90;;;;;;5040929;28;20474;-72
2021/07/21 07:12:13;;;;;;;38.50;35.30;;;20.40;68.90;;;;;;5044603;28;20457;-72
2021/07/21 07:14:41;;;;;;;36.90;34.50;;;20.40;69.10;;;;;;5046899;28;20465;-71
2021/07/21 07:17:08;;;;;;;39.07;36.00;;;20.40;68.90;;;;;;5047332;28;20483;-71
2021/07/21 07:19:34;;;;;;;39.23;36.53;;;20.40;68.60;;;;;;5050047;28;21219;-71
2021/07/21 07:22:01;;;;;;;40.07;37.33;;;20.50;68.30;;;;;;5050691;28;20573;-71
2021/07/21 07:24:29;;;;;;;40.67;37.77;;;20.40;68.60;;;;;;5049573;28;20457;-71
2021/07/21 07:26:58;;;;;;;40.97;37.77;;;20.50;68.50;;;;;;5048770;28;20487;-71
2021/07/21 07:29:25;;;;;;;41.93;38.20;;;20.40;68.60;;;;;;5049950;28;20553;-71
2021/07/21 07:31:52;;;;;;;37.97;35.37;;;20.20;68.70;;;;;;5048467;28;20533;-71
2021/07/21 07:34:19;;;;;;;41.23;38.03;;;20.00;69.60;;;;;;5046231;28;20462;-72
2021/07/21 07:36:47;;;;;;;41.83;38.80;;;20.10;69.40;;;;;;5043765;28;21162;-73
2021/07/21 07:39:14;;;;;;;40.47;37.57;;;20.30;69.20;;;;;;5042446;28;20460;-73
2021/07/21 07:41:41;;;;;;;41.47;38.63;;;20.30;68.70;;;;;;5032702;28;20481;-73
2021/07/21 07:44:11;;;;;;;39.97;36.90;;;20.20;68.90;;;;;;5049196;28;20463;-73
2021/07/21 07:46:38;;;;;;;40.80;37.60;;;20.20;68.80;;;;;;5048886;28;20607;-73
2021/07/21 07:49:06;;;;;;;40.20;37.37;;;20.30;68.60;;;;;;5043866;28;20543;-72
2021/07/21 07:51:34;;;;;;;40.87;38.07;;;20.20;69.20;;;;;;5050202;28;20969;-71
2021/07/21 07:54:02;;;;;;;40.47;37.63;;;20.20;69.40;;;;;;5049641;28;20477;-72
2021/07/21 07:56:29;;;;;;;39.87;37.00;;;20.40;68.90;;;;;;5038307;28;20479;-72
2021/07/21 07:58:56;;;;;;;38.50;35.77;;;20.60;68.60;;;;;;5046004;28;20500;-71
2021/07/21 08:01:25;;;;;;;41.17;38.37;;;20.70;67.90;;;;;;5045732;28;20466;-70
2021/07/21 08:03:52;;;;;;;41.60;38.70;;;20.80;67.40;;;;;;5046976;28;20462;-70
2021/07/21 08:06:19;;;;;;;38.20;35.50;;;21.00;67.30;;;;;;5048644;28;20490;-70
2021/07/21 08:08:46;;;;;;;39.43;36.43;;;21.10;66.90;;;;;;5039352;28;20460;-70
2021/07/21 08:11:13;;;;;;;41.57;38.40;;;21.00;67.60;;;;;;5044648;28;20461;-71
2021/07/21 08:13:41;;;;;;;41.80;39.07;;;21.20;67.10;;;;;;5049071;28;20466;-71
2021/07/21 08:16:10;;;;;;;39.83;36.70;;;21.30;66.50;;;;;;5041857;28;20488;-70
2021/07/21 08:18:38;;;;;;;38.97;36.23;;;21.30;66.40;;;;;;5047699;28;20538;-71
2021/07/21 08:21:05;;;;;;;41.97;38.70;;;21.50;66.30;;;;;;5044511;28;20466;-70
2021/07/21 08:23:33;;;;;;;41.33;38.33;;;21.60;65.90;;;;;;5040507;28;20492;-71
2021/07/21 08:25:59;;;;;;;38.43;35.73;;;21.60;65.70;;;;;;5047547;28;20853;-71
2021/07/21 08:28:27;;;;;;;39.67;36.60;;;21.50;66.20;;;;;;5045574;28;20462;-71
2021/07/21 08:30:54;;;;;;;40.83;37.97;;;21.40;66.60;;;;;;5039121;28;20553;-71
2021/07/21 08:33:22;;;;;;;42.83;39.70;;;21.40;66.80;;;;;;5047190;28;20455;-71
2021/07/21 08:35:50;;;;;;;41.53;37.97;;;21.30;66.80;;;;;;5049066;28;20475;-71
2021/07/21 08:38:17;;;;;;;41.53;38.33;;;21.20;67.20;;;;;;5048027;28;20459;-69
2021/07/21 08:40:44;;;;;;;45.30;41.53;;;21.30;67.10;;;;;;5041284;28;20456;-70
2021/07/21 08:43:11;;;;;;;40.83;37.93;;;21.40;67.10;;;;;;5039000;28;20836;-71
2021/07/21 08:45:38;;;;;;;41.97;38.80;;;21.50;66.90;;;;;;5037785;28;20487;-70
2021/07/21 08:48:05;;;;;;;39.60;36.60;;;21.70;67.10;;;;;;5044332;28;20473;-70
2021/07/21 08:50:32;;;;;;;41.80;38.10;;;21.90;65.70;;;;;;5035555;28;20464;-72
2021/07/21 08:53:02;;;;;;;39.50;36.50;;;22.10;65.20;;;;;;5033644;28;20458;-69
2021/07/21 08:55:32;;;;;;;39.13;36.03;;;22.20;64.90;;;;;;5042492;28;20540;-69
2021/07/21 08:57:59;;;;;;;41.77;38.83;;;22.20;65.00;;;;;;5044183;28;20459;-69
2021/07/21 09:00:26;;;;;;;41.97;38.40;;;22.40;64.60;;;;;;5047123;28;20817;-69
2021/07/21 09:02:53;;;;;;;42.00;38.50;;;22.40;64.70;;;;;;5047786;28;20483;-69
2021/07/21 09:05:20;;;;;;;40.43;37.53;;;22.40;64.70;;;;;;5043042;28;20562;-69
2021/07/21 09:07:48;;;;;;;38.50;35.70;;;22.50;64.40;;;;;;5043922;28;20459;-69
2021/07/21 09:10:19;;;;;;;39.73;36.53;;;22.60;63.70;;;;;;5046076;28;20455;-69
2021/07/21 09:12:48;;;;;;;41.17;38.37;;;22.60;63.40;;;;;;5037176;28;20466;-70
2021/07/21 09:15:18;;;;;;;37.97;35.23;;;22.50;63.50;;;;;;5047441;28;20558;-69
2021/07/21 09:18:05;;;;;;;39.90;37.00;;;22.60;63.10;;;;;;5046218;28;20540;-70
2021/07/21 09:20:34;;;;;;;37.63;35.10;;;22.70;62.90;;;;;;5049260;28;20863;-71
2021/07/21 09:23:01;;;;;;;38.83;36.00;;;22.80;63.20;;;;;;5047197;28;20483;-70
2021/07/21 09:25:30;;;;;;;37.40;34.90;;;22.90;62.90;;;;;;5048809;28;21470;-71
2021/07/21 09:27:59;;;;;;;40.57;37.73;;;23.10;62.50;;;;;;5044269;28;20467;-71
2021/07/21 09:30:28;;;;;;;38.60;36.03;;;23.20;62.40;;;;;;5030924;28;20965;-70
2021/07/21 09:33:00;;;;;;;40.17;37.40;;;23.20;62.50;;;;;;5034372;28;21265;-70
2021/07/21 09:35:29;;;;;;;40.50;37.53;;;23.40;61.50;;;;;;5047010;28;20852;-70
2021/07/21 09:38:06;;;;;;;40.17;36.90;;;23.40;61.40;;;;;;5044469;28;20465;-70
2021/07/21 09:40:35;;;;;;;39.67;36.53;;;23.50;60.70;;;;;;5047596;28;20482;-71
2021/07/21 09:43:02;;;;;;;37.83;35.20;;;23.40;60.70;;;;;;5047182;28;21043;-71
2021/07/21 09:45:36;;;;;;;40.30;37.10;;;23.30;60.60;;;;;;5046137;28;21000;-72
2021/07/21 09:48:03;;;;;;;38.90;35.73;;;23.40;61.40;;;;;;5045009;28;20862;-73
2021/07/21 09:50:30;;;;;;;40.50;37.80;;;23.30;61.40;;;;;;5042909;28;20455;-72
2021/07/21 09:53:02;;;;;;;41.27;38.37;;;23.30;61.50;;;;;;5047264;28;20458;-74
2021/07/21 09:55:30;;;;;;;38.10;35.37;;;23.50;61.10;;;;;;5045544;28;20505;-73
2021/07/21 09:58:07;;;;;;;39.50;36.60;;;23.50;59.50;;;;;;5051461;28;20486;-73
2021/07/21 10:00:37;;;;;;;38.27;35.60;;;23.50;59.50;;;;;;5053017;28;20854;-73
2021/07/21 10:03:16;;;;;;;39.40;36.70;;;23.50;59.60;;;;;;5049466;28;20482;-72
2021/07/21 10:06:04;;;;;;;37.77;35.30;;;23.40;59.60;;;;;;5043341;28;20494;-71
2021/07/21 10:08:38;;;;;;;39.47;36.43;;;23.30;59.90;;;;;;5047065;28;20461;-73
2021/07/21 10:11:25;;;;;;;40.10;37.40;;;23.20;59.60;;;;;;5052250;28;20478;-70
2021/07/21 10:13:55;;;;;;;39.37;36.77;;;23.30;59.90;;;;;;5051494;28;20919;-69
2021/07/21 10:16:41;;;;;;;41.10;38.30;;;23.50;59.70;;;;;;5050555;28;21039;-72
2021/07/21 10:19:11;;;;;;;41.50;38.30;;;23.70;59.90;;;;;;5050005;28;21133;-71
2021/07/21 10:21:40;;;;;;;39.73;36.87;;;23.90;59.20;;;;;;5051035;28;20459;-70
2021/07/21 10:24:09;;;;;;;43.60;40.33;;;24.00;59.50;;;;;;5050693;28;20474;-70
2021/07/21 10:26:37;;;;;;;39.87;37.07;;;24.10;58.70;;;;;;5050996;28;20493;-71
2021/07/21 10:29:06;;;;;;;40.53;37.87;;;24.10;58.70;;;;;;5045457;28;21175;-71
2021/07/21 10:31:34;;;;;;;39.33;36.57;;;24.00;58.80;;;;;;5039492;28;20521;-71
2021/07/21 10:34:01;;;;;;;40.07;37.00;;;24.20;58.60;;;;;;5046097;28;20455;-72
2021/07/21 10:36:30;;;;;;;40.67;37.97;;;24.30;58.70;;;;;;5046757;28;20603;-72
2021/07/21 10:38:57;;;;;;;41.80;39.00;;;24.30;58.10;;;;;;5048897;28;20451;-73
2021/07/21 10:41:28;;;;;;;40.50;37.90;;;24.20;57.70;;;;;;5051126;28;20542;-71
2021/07/21 10:43:57;;;;;;;40.33;37.67;;;24.30;57.90;;;;;;5047935;28;20585;-72
2021/07/21 10:46:40;;;;;;;41.17;38.20;;;24.40;58.10;;;;;;5051442;28;20473;-71
2021/07/21 10:49:15;;;;;;;39.63;37.00;;;24.70;57.10;;;;;;5044898;28;20447;-71
2021/07/21 10:51:59;;;;;;;40.23;37.43;;;24.80;57.00;;;;;;5049625;28;20470;-70
2021/07/21 10:54:43;;;;;;;39.00;36.37;;;24.80;57.00;;;;;;5050697;28;20783;-71
2021/07/21 11:00:05;;;;;;;40.73;37.83;;;24.90;56.90;;;;;;5047618;28;20485;-69
2021/07/21 11:02:34;;;;;;;37.50;35.00;;;24.90;57.00;;;;;;5050859;28;20505;-71
2021/07/21 11:05:01;;;;;;;40.83;38.03;;;25.10;55.90;;;;;;5038634;28;20866;-71
2021/07/21 11:07:51;;;;;;;41.27;38.37;;;25.30;55.70;;;;;;5049624;28;20530;-72
2021/07/21 11:10:31;;;;;;;40.10;37.33;;;25.30;55.90;;;;;;5042552;28;20451;-69
2021/07/21 11:12:59;;;;;;;42.43;39.20;;;25.30;55.10;;;;;;5049992;28;20995;-72
2021/07/21 11:15:40;;;;;;;41.03;38.17;;;25.20;55.20;;;;;;5050265;28;20477;-72
2021/07/21 11:18:50;;;;;;;42.07;39.07;;;25.20;55.40;;;;;;5050407;28;21002;-72
2021/07/21 11:21:21;;;;;;;39.03;36.43;;;25.30;55.80;;;;;;5049620;28;20550;-71
2021/07/21 11:24:02;;;;;;;41.40;38.50;;;25.20;54.80;;;;;;5050453;28;20475;-71
2021/07/21 11:26:43;;;;;;;41.90;38.90;;;24.90;55.10;;;;;;5049562;28;20486;-71
2021/07/21 11:29:47;;;;;;;41.00;38.20;;;24.70;55.60;;;;;;5047554;28;20455;-72
2021/07/21 11:32:29;;;;;;;42.67;40.17;;;24.70;55.80;;;;;;5040711;28;20461;-71
2021/07/21 11:34:57;;;;;;;40.50;37.63;;;25.10;55.50;;;;;;5047854;28;20542;-69
2021/07/21 11:37:33;;;;;;;40.07;37.33;;;25.40;55.00;;;;;;5049626;28;21008;-69
2021/07/21 11:40:13;;;;;;;39.57;36.60;;;25.60;54.90;;;;;;5044628;28;20450;-71
2021/07/21 11:42:40;;;;;;;42.17;39.20;;;25.80;55.00;;;;;;5045072;28;20971;-71
2021/07/21 11:45:20;;;;;;;40.73;38.03;;;25.70;53.70;;;;;;5050540;28;20550;-73
2021/07/21 11:47:57;;;;;;;40.80;37.90;;;26.00;53.40;;;;;;5050100;28;20498;-70
2021/07/21 11:50:26;;;;;;;40.73;37.57;;;26.00;54.00;;;;;;5040198;28;20454;-70
2021/07/21 11:52:55;;;;;;;42.10;38.90;;;26.00;53.90;;;;;;5046103;28;20530;-71
2021/07/21 11:55:24;;;;;;;45.07;41.70;;;26.10;53.70;;;;;;5038780;28;20485;-70
2021/07/21 11:57:52;;;;;;;40.37;37.77;;;26.30;53.80;;;;;;5047267;28;20459;-70
2021/07/21 12:00:21;;;;;;;40.60;37.47;;;26.50;52.90;;;;;;5047407;28;20468;-70
2021/07/21 12:02:48;;;;;;;49.47;46.33;;;26.60;53.60;;;;;;5047267;28;20466;-70
2021/07/21 12:05:16;;;;;;;42.90;39.70;;;26.70;52.50;;;;;;5050662;28;20988;-72
2021/07/21 12:07:46;;;;;;;43.27;40.37;;;26.70;52.70;;;;;;5049499;28;20461;-73
2021/07/21 12:10:17;;;;;;;40.73;37.87;;;26.90;52.60;;;;;;5050875;28;20516;-72
2021/07/21 12:12:45;;;;;;;41.37;38.60;;;27.10;51.70;;;;;;5048065;28;20462;-71
2021/07/21 12:15:16;;;;;;;41.47;38.40;;;27.20;52.00;;;;;;5049885;28;20471;-71
2021/07/21 12:17:43;;;;;;;43.50;40.47;;;27.20;51.20;;;;;;5049075;28;23199;-68
2021/07/21 12:20:12;;;;;;;41.80;38.80;;;27.00;51.60;;;;;;5049766;28;20997;-69
2021/07/21 12:22:45;;;;;;;42.20;38.77;;;26.90;51.70;;;;;;5044994;28;20485;-71
2021/07/21 12:25:15;;;;;;;40.63;37.80;;;26.90;51.80;;;;;;5049881;28;20471;-71
2021/07/21 12:27:43;;;;;;;43.90;40.90;;;26.80;52.40;;;;;;5035562;28;20455;-69
2021/07/21 12:30:13;;;;;;;45.10;41.87;;;26.70;53.00;;;;;;5050150;28;20443;-71
2021/07/21 12:32:40;;;;;;;44.27;41.17;;;26.50;53.00;;;;;;5046526;28;20455;-69
2021/07/21 12:35:10;;;;;;;40.90;38.10;;;26.40;53.60;;;;;;5036655;28;20858;-70
2021/07/21 12:37:41;;;;;;;40.27;37.33;;;26.40;53.50;;;;;;5038207;28;20643;-71
2021/07/21 12:40:10;;;;;;;44.87;41.77;;;26.40;53.40;;;;;;5044902;28;20537;-69
2021/07/21 12:42:39;;;;;;;40.27;37.57;;;26.20;53.60;;;;;;5048222;28;20459;-71
2021/07/21 12:45:09;;;;;;;40.30;37.50;;;26.10;54.30;;;;;;5043822;28;20514;-71